.
WxDataArchive / Data Records for 2006-04-24
2006-04-23 April 2006 2006-04-25

Data Records for Monday, 24 April 2006

Time	Temp	Chill	HIndex	Humid	Dewpt	 Wind 	HiWind	WindDir	Rain 	Barom 
-----	----	-----	------	-----	-----	------	------	-------	-----	----- 
00:00	47.7	47.7	47.7	74	39.8	0	1	270	0.00	29.880 
00:05	47.6	47.6	47.6	75	40.1	0	1	270	0.00	29.880 
00:10	47.4	47.4	47.4	76	40.2	0	4	270	0.00	29.880 
00:15	47.3	47.3	47.3	76	40.1	0	1	270	0.00	29.879 
00:20	47.0	47.0	47.0	77	40.2	0	1	270	0.00	29.879 
00:25	46.8	46.8	46.8	77	40.0	0	2	270	0.00	29.879 
00:30	46.5	46.5	46.5	77	39.7	0	1	270	0.00	29.877 
00:35	46.4	46.4	46.4	78	39.9	0	0	---	0.00	29.877 
00:40	46.1	46.1	46.1	79	40.0	0	0	---	0.00	29.877 
00:45	45.8	45.8	45.8	79	39.7	0	0	---	0.00	29.869 
00:50	45.5	45.5	45.5	80	39.7	0	1	270	0.00	29.869 
00:55	45.2	45.2	45.2	81	39.7	0	0	---	0.00	29.869 
01:00	45.1	45.1	45.1	81	39.6	0	0	---	0.00	29.866 
01:05	44.8	44.8	44.8	81	39.3	0	0	---	0.00	29.866 
01:10	44.5	44.5	44.5	82	39.4	0	0	---	0.00	29.866 
01:15	44.2	44.2	44.2	83	39.4	0	0	---	0.00	29.864 
01:20	44.1	44.1	44.1	84	39.6	0	1	270	0.00	29.864 
01:25	44.1	44.1	44.1	84	39.6	0	0	---	0.00	29.864 
01:30	43.9	43.9	43.9	85	39.7	0	0	---	0.00	29.863 
01:35	44.1	44.1	44.1	85	39.9	0	0	---	0.00	29.863 
01:40	43.9	43.9	43.9	85	39.7	0	0	---	0.00	29.863 
01:45	43.9	43.9	43.9	85	39.7	0	1	270	0.00	29.864 
01:50	43.9	43.9	43.9	85	39.7	0	0	---	0.00	29.864 
01:55	43.9	43.9	43.9	85	39.7	0	1	270	0.00	29.864 
02:00	43.8	43.8	43.8	85	39.6	0	1	270	0.00	29.864 
02:05	43.6	43.6	43.6	85	39.4	0	1	270	0.00	29.864 
02:10	43.5	43.5	43.5	85	39.3	0	1	270	0.00	29.864 
02:15	43.3	43.3	43.3	85	39.1	0	0	---	0.00	29.855 
02:20	43.1	43.1	43.1	86	39.2	0	1	270	0.00	29.855 
02:25	42.8	42.8	42.8	86	38.9	0	0	---	0.00	29.855 
02:30	42.5	42.5	42.5	86	38.6	0	0	---	0.00	29.854 
02:35	42.3	42.3	42.3	87	38.7	0	0	---	0.00	29.854 
02:40	42.1	42.1	42.1	87	38.5	0	0	---	0.00	29.854 
02:45	41.9	41.9	41.9	87	38.3	0	0	---	0.00	29.849 
02:50	41.6	41.6	41.6	88	38.3	0	0	---	0.00	29.849 
02:55	41.6	41.6	41.6	89	38.6	0	0	---	0.00	29.849 
03:00	41.5	41.5	41.5	89	38.5	0	0	---	0.00	29.844 
03:05	41.2	41.2	41.2	88	37.9	0	0	---	0.00	29.844 
03:10	40.9	40.9	40.9	89	37.9	0	0	---	0.00	29.844 
03:15	40.8	40.8	40.8	89	37.8	0	0	---	0.00	29.847 
03:20	40.6	40.6	40.6	90	37.9	0	0	---	0.00	29.847 
03:25	40.5	40.5	40.5	90	37.8	0	0	---	0.00	29.847 
03:30	40.3	40.3	40.3	90	37.6	0	0	---	0.00	29.858 
03:35	40.3	40.3	40.3	91	37.9	0	0	---	0.00	29.858 
03:40	40.2	40.2	40.2	91	37.8	0	1	270	0.00	29.858 
03:45	40.2	40.2	40.2	91	37.8	0	0	---	0.00	29.863 
03:50	40.5	40.5	40.5	92	38.4	0	1	270	0.00	29.863 
03:55	40.5	40.5	40.5	92	38.4	0	0	---	0.00	29.863 
04:00	40.5	40.5	40.5	92	38.4	0	0	---	0.00	29.867 
04:05	40.6	40.6	40.6	92	38.5	0	0	---	0.00	29.867 
04:10	40.5	40.5	40.5	92	38.4	0	0	---	0.00	29.867 
04:15	40.6	40.6	40.6	92	38.5	0	1	270	0.00	29.880 
04:20	40.8	40.8	40.8	92	38.7	0	2	270	0.00	29.880 
04:25	40.9	40.9	40.9	92	38.8	0	1	270	0.00	29.880 
04:30	41.1	41.1	41.1	92	39.0	0	1	270	0.00	29.889 
04:35	41.1	41.1	41.1	92	39.0	0	1	270	0.00	29.889 
04:40	41.1	41.1	41.1	92	39.0	0	0	---	0.00	29.889 
04:45	41.1	41.1	41.1	92	39.0	0	0	---	0.00	29.894 
04:50	40.9	40.9	40.9	91	38.5	0	0	---	0.00	29.894 
04:55	40.9	40.9	40.9	91	38.5	0	1	270	0.00	29.894 
05:00	40.9	40.9	40.9	92	38.8	0	1	270	0.00	29.895 
05:05	41.1	41.1	41.1	92	39.0	1	3	270	0.00	29.895 
05:10	41.1	41.1	41.1	92	39.0	0	1	248	0.00	29.895 
05:15	41.1	41.1	41.1	91	38.7	0	1	248	0.00	29.903 
05:20	41.1	41.1	41.1	91	38.7	0	1	248	0.00	29.903 
05:25	40.9	40.9	40.9	91	38.5	0	1	248	0.00	29.903 
05:30	40.8	40.8	40.8	91	38.4	0	0	---	0.00	29.905 
05:35	40.8	40.8	40.8	91	38.4	0	1	248	0.00	29.905 
05:40	40.6	40.6	40.6	91	38.2	0	0	---	0.00	29.905 
05:45	40.6	40.6	40.6	92	38.5	0	0	---	0.00	29.898 
05:50	40.5	40.5	40.5	92	38.4	0	0	---	0.00	29.898 
05:55	40.3	40.3	40.3	92	38.2	0	1	248	0.00	29.898 
06:00	40.3	40.3	40.3	92	38.2	0	0	---	0.00	29.895 
06:05	40.2	40.2	40.2	92	38.1	0	1	248	0.00	29.895 
06:10	40.2	40.2	40.2	92	38.1	0	0	---	0.00	29.895 
06:15	40.1	40.1	40.1	92	38.0	0	1	248	0.00	29.890 
06:20	39.9	39.9	39.9	92	37.8	0	0	---	0.00	29.890 
06:25	39.9	39.9	39.9	92	37.8	0	0	---	0.00	29.890 
06:30	39.8	39.8	39.8	92	37.7	0	0	---	0.00	29.898 
06:35	39.8	39.8	39.8	92	37.7	0	0	---	0.00	29.898 
06:40	39.6	39.6	39.6	92	37.5	0	0	---	0.00	29.898 
06:45	39.6	39.6	39.6	92	37.5	0	0	---	0.00	29.899 
06:50	39.8	39.8	39.8	93	37.9	0	0	---	0.00	29.899 
06:55	39.6	39.6	39.6	93	37.7	0	1	248	0.00	29.899 
07:00	39.5	39.5	39.5	92	37.4	0	0	---	0.00	29.903 
07:05	39.2	39.2	39.2	92	37.1	0	0	---	0.00	29.903 
07:10	39.1	39.1	39.1	92	37.0	0	0	---	0.00	29.903 
07:15	39.1	39.1	39.1	92	37.0	0	0	---	0.00	29.904 
07:20	39.1	39.1	39.1	93	37.2	0	0	---	0.00	29.904 
07:25	39.2	39.2	39.2	93	37.3	0	0	---	0.00	29.904 
07:30	39.5	39.5	39.5	93	37.6	0	0	---	0.00	29.904 
07:35	39.8	39.8	39.8	93	37.9	0	1	248	0.00	29.904 
07:40	40.2	40.2	40.2	94	38.6	0	2	248	0.00	29.904 
07:45	40.5	40.5	40.5	94	38.9	0	1	248	0.00	29.905 
07:50	40.6	40.6	40.6	94	39.0	0	2	248	0.00	29.905 
07:55	40.6	40.6	40.6	94	39.0	1	2	248	0.00	29.905 
08:00	40.6	40.6	40.6	94	39.0	0	0	---	0.00	29.917 
08:05	40.8	40.8	40.8	94	39.2	0	1	248	0.00	29.917 
08:10	40.9	40.9	40.9	94	39.3	0	1	248	0.00	29.917 
08:15	41.1	41.1	41.1	94	39.5	0	1	248	0.00	29.922 
08:20	41.1	41.1	41.1	94	39.5	0	1	248	0.00	29.922 
08:25	41.2	41.2	41.2	94	39.6	0	1	248	0.00	29.922 
08:30	41.5	41.5	41.5	95	40.2	0	0	---	0.00	29.937 
08:35	41.8	41.8	41.8	95	40.5	0	1	248	0.00	29.937 
08:40	42.1	42.1	42.1	95	40.8	0	1	248	0.00	29.937 
08:45	42.5	42.5	42.5	95	41.2	0	2	248	0.00	29.947 
08:50	42.9	42.9	42.9	95	41.6	1	1	248	0.00	29.947 
08:55	43.9	43.9	43.9	95	42.6	0	2	248	0.00	29.947 
09:00	44.9	44.9	44.9	94	43.3	0	2	248	0.00	29.951 
09:05	45.4	45.4	45.4	91	42.9	0	1	248	0.00	29.951 
09:10	46.5	46.5	46.5	87	42.8	0	2	248	0.00	29.951 
09:15	47.6	47.6	47.6	81	42.1	1	3	248	0.00	29.949 
09:20	48.8	48.8	48.8	81	43.2	0	1	248	0.00	29.949 
09:25	49.6	49.6	49.6	77	42.7	0	3	248	0.00	29.949 
09:30	50.5	50.5	50.5	78	43.9	0	1	248	0.00	29.956 
09:35	51.1	51.1	51.1	77	44.1	1	2	248	0.00	29.956 
09:40	51.6	51.6	51.6	75	43.9	1	4	248	0.00	29.956 
09:45	52.3	52.3	52.3	74	44.3	1	2	225	0.00	29.959 
09:50	52.6	52.6	52.6	73	44.2	1	3	225	0.00	29.959 
09:55	53.2	53.2	53.2	72	44.4	1	2	225	0.00	29.959 
10:00	53.6	53.6	53.6	71	44.4	1	3	225	0.00	29.957 
10:05	53.8	53.8	53.8	69	43.9	1	3	225	0.00	29.957 
10:10	53.9	53.9	53.9	70	44.3	1	2	315	0.00	29.957 
10:15	54.4	54.4	54.4	71	45.2	1	2	315	0.00	29.954 
10:20	54.7	54.7	54.7	69	44.7	1	3	248	0.00	29.954 
10:25	55.1	55.1	55.1	69	45.1	1	2	315	0.00	29.954 
10:30	55.4	55.4	55.4	69	45.4	1	4	248	0.00	29.953 
10:35	55.9	55.9	55.9	68	45.5	1	3	248	0.00	29.953 
10:40	56.2	56.2	56.2	68	45.8	1	4	248	0.00	29.953 
10:45	56.2	56.2	56.2	68	45.8	2	3	248	0.00	29.949 
10:50	56.6	56.6	56.6	69	46.5	2	3	248	0.00	29.949 
10:55	57.0	57.0	57.0	65	45.4	1	3	270	0.00	29.949 
11:00	57.0	57.0	57.0	67	46.2	2	4	338	0.00	29.943 
11:05	57.3	57.3	57.3	66	46.0	1	6	225	0.00	29.943 
11:10	57.2	57.2	57.2	67	46.3	2	3	248	0.00	29.943 
11:15	57.8	57.8	57.8	67	46.9	1	3	248	0.00	29.942 
11:20	58.1	58.1	58.1	63	45.6	1	3	248	0.00	29.942 
11:25	58.4	58.4	58.4	68	47.9	1	3	315	0.00	29.942 
11:30	58.6	58.6	58.6	64	46.5	1	3	248	0.00	29.939 
11:35	58.6	58.6	58.6	65	46.9	1	4	45	0.00	29.939 
11:40	58.7	58.7	58.7	62	45.7	1	4	315	0.00	29.939 
11:45	58.6	58.6	58.6	63	46.0	1	5	315	0.00	29.939 
11:50	59.0	59.0	59.0	62	46.0	2	4	270	0.00	29.939 
11:55	59.3	59.3	59.3	61	45.8	2	4	248	0.00	29.939 
12:00	59.3	59.3	59.3	62	46.3	2	4	270	0.00	29.938 
12:05	59.5	59.5	59.5	62	46.5	1	4	248	0.00	29.938 
12:10	59.8	59.8	59.8	60	45.9	1	4	270	0.00	29.938 
12:15	59.9	59.9	59.9	60	46.0	1	3	315	0.00	29.935 
12:20	59.9	59.9	59.9	64	47.7	1	2	338	0.00	29.935 
12:25	60.4	60.4	60.4	58	45.6	1	3	338	0.00	29.935 
12:30	60.9	60.9	60.9	60	46.9	2	4	270	0.00	29.929 
12:35	60.5	60.5	60.5	58	45.6	1	4	315	0.00	29.929 
12:40	60.7	60.7	60.7	58	45.8	1	4	22	0.00	29.929 
12:45	61.0	61.0	61.0	57	45.7	1	4	270	0.00	29.927 
12:50	61.2	61.2	61.2	58	46.3	2	4	292	0.00	29.927 
12:55	61.5	61.5	61.5	54	44.7	2	4	248	0.00	29.927 
13:00	61.2	61.2	61.2	53	43.9	2	4	315	0.00	29.924 
13:05	61.3	61.3	61.3	56	45.5	1	3	0	0.00	29.924 
13:10	61.8	61.8	61.8	55	45.5	1	3	315	0.00	29.924 
13:15	62.4	62.4	62.4	53	45.0	1	3	292	0.00	29.911 
13:20	62.9	62.9	62.9	50	44.0	1	3	248	0.00	29.911 
13:25	62.9	62.9	62.9	48	42.9	1	3	45	0.00	29.911 
13:30	62.9	62.9	62.9	52	45.0	1	4	315	0.00	29.910 
13:35	62.9	62.9	62.9	52	45.0	1	3	315	0.00	29.910 
13:40	63.5	63.5	63.5	53	46.1	1	4	315	0.00	29.910 
13:45	63.7	63.7	63.7	48	43.6	2	4	270	0.00	29.910 
13:50	63.9	63.9	63.9	51	45.4	1	4	248	0.00	29.910 
13:55	64.7	64.7	64.7	48	44.6	1	4	45	0.00	29.910 
14:00	64.5	64.5	64.5	51	46.0	1	6	45	0.00	29.912 
14:05	64.5	64.5	64.5	49	44.9	1	9	45	0.00	29.912 
14:10	64.8	64.8	64.8	46	43.5	3	5	248	0.00	29.912 
14:15	65.2	65.2	65.2	48	45.0	2	6	248	0.00	29.913 
14:20	65.2	65.2	65.2	46	43.9	2	6	22	0.00	29.913 
14:25	65.3	65.3	65.3	49	45.6	1	3	0	0.00	29.913 
14:30	65.2	65.2	65.2	45	43.3	1	5	22	0.00	29.913 
14:35	65.0	65.0	65.0	45	43.1	2	4	338	0.00	29.913 
14:40	64.8	64.8	64.8	47	44.1	2	5	315	0.00	29.913 
14:45	65.6	65.6	65.6	46	44.3	2	5	270	0.00	29.915 
14:50	65.2	65.2	65.2	43	42.1	2	3	338	0.00	29.915 
14:55	65.3	65.3	65.3	43	42.2	2	4	338	0.00	29.915 
15:00	66.0	66.0	66.0	49	46.3	1	5	248	0.00	29.912 
15:05	66.4	66.4	66.4	46	45.0	2	4	0	0.00	29.912 
15:10	67.1	67.1	67.1	43	43.8	2	5	270	0.00	29.912 
15:15	66.3	66.3	66.3	44	43.7	2	5	338	0.00	29.909 
15:20	66.6	66.6	66.6	45	44.6	1	3	315	0.00	29.909 
15:25	66.9	66.9	66.9	44	44.3	3	7	292	0.00	29.909 
15:30	67.4	67.4	67.4	44	44.7	2	5	248	0.00	29.897 
15:35	67.8	67.8	67.8	42	43.9	2	6	0	0.00	29.897 
15:40	67.8	67.8	67.8	41	43.2	2	4	248	0.00	29.897 
15:45	67.1	67.1	67.1	42	43.2	1	3	338	0.00	29.893 
15:50	66.6	66.6	66.6	46	45.2	2	4	338	0.00	29.893 
15:55	66.9	66.9	66.9	41	42.4	2	4	270	0.00	29.893 
16:00	66.9	66.9	66.9	43	43.7	2	6	248	0.00	29.886 
16:05	66.9	66.9	66.9	43	43.7	1	3	0	0.00	29.886 
16:10	66.9	66.9	66.9	42	43.1	1	3	315	0.00	29.886 
16:15	67.6	67.6	67.6	41	43.1	1	3	248	0.00	29.881 
16:20	67.8	67.8	67.8	42	43.9	1	6	315	0.00	29.881 
16:25	67.3	67.3	67.3	39	41.5	1	4	338	0.00	29.881 
16:30	67.8	67.8	67.8	42	43.9	2	4	248	0.00	29.881 
16:35	67.9	67.9	67.9	41	43.3	1	4	270	0.00	29.881 
16:40	68.1	68.1	68.1	41	43.5	1	3	292	0.00	29.881 
16:45	68.1	68.1	68.1	42	44.1	2	5	270	0.00	29.878 
16:50	68.1	68.1	68.1	43	44.7	2	4	292	0.00	29.878 
16:55	68.4	68.4	68.4	41	43.8	1	4	248	0.00	29.878 
17:00	68.6	68.6	68.6	39	42.6	2	4	248	0.00	29.871 
17:05	68.3	68.3	68.3	40	43.0	2	6	270	0.00	29.871 
17:10	68.3	68.3	68.3	42	44.3	1	3	338	0.00	29.871 
17:15	68.3	68.3	68.3	40	43.0	1	3	315	0.00	29.865 
17:20	68.3	68.3	68.3	44	45.5	1	3	315	0.00	29.865 
17:25	68.3	68.3	68.3	39	42.4	1	3	0	0.00	29.865 
17:30	68.1	68.1	68.1	39	42.2	1	3	292	0.00	29.862 
17:35	68.1	68.1	68.1	42	44.1	1	2	338	0.00	29.862 
17:40	68.1	68.1	68.1	39	42.2	1	3	270	0.00	29.862 
17:45	68.3	68.3	68.3	41	43.7	1	3	270	0.00	29.862 
17:50	68.1	68.1	68.1	39	42.2	1	3	315	0.00	29.862 
17:55	68.1	68.1	68.1	38	41.5	0	2	292	0.00	29.862 
18:00	68.3	68.3	68.3	39	42.4	0	2	315	0.00	29.865 
18:05	68.4	68.4	68.4	40	43.1	1	3	248	0.00	29.865 
18:10	68.3	68.3	68.3	40	43.0	0	2	338	0.00	29.865 
18:15	68.1	68.1	68.1	39	42.2	1	2	338	0.00	29.865 
18:20	67.9	67.9	67.9	41	43.3	0	2	338	0.00	29.865 
18:25	67.8	67.8	67.8	40	42.6	1	2	338	0.00	29.865 
18:30	67.6	67.6	67.6	39	41.8	1	3	270	0.00	29.866 
18:35	67.3	67.3	67.3	40	42.1	1	2	338	0.00	29.866 
18:40	67.1	67.1	67.1	40	42.0	0	2	338	0.00	29.866 
18:45	66.9	66.9	66.9	40	41.8	0	3	0	0.00	29.866 
18:50	67.1	67.1	67.1	39	41.3	0	2	0	0.00	29.866 
18:55	67.1	67.1	67.1	41	42.6	0	1	0	0.00	29.866 
19:00	66.9	66.9	66.9	39	41.1	0	1	0	0.00	29.864 
19:05	66.9	66.9	66.9	42	43.1	0	2	0	0.00	29.864 
19:10	66.9	66.9	66.9	40	41.8	0	1	0	0.00	29.864 
19:15	66.8	66.8	66.8	40	41.7	0	2	22	0.00	29.860 
19:20	66.6	66.6	66.6	41	42.2	0	1	22	0.00	29.860 
19:25	66.6	66.6	66.6	42	42.8	0	1	22	0.00	29.860 
19:30	66.3	66.3	66.3	41	41.9	0	2	315	0.00	29.856 
19:35	66.0	66.0	66.0	42	42.2	0	1	315	0.00	29.856 
19:40	65.6	65.6	65.6	43	42.5	0	0	---	0.00	29.856 
19:45	65.2	65.2	65.2	43	42.1	0	0	---	0.00	29.858 
19:50	64.8	64.8	64.8	44	42.4	0	0	---	0.00	29.858 
19:55	64.5	64.5	64.5	45	42.7	0	0	---	0.00	29.858 
20:00	63.9	63.9	63.9	47	43.3	0	0	---	0.00	29.853 
20:05	63.4	63.4	63.4	46	42.3	0	0	---	0.00	29.853 
20:10	62.9	62.9	62.9	47	42.4	0	0	---	0.00	29.853 
20:15	62.6	62.6	62.6	48	42.6	0	0	---	0.00	29.852 
20:20	62.3	62.3	62.3	48	42.4	0	0	---	0.00	29.852 
20:25	61.8	61.8	61.8	50	43.0	0	0	---	0.00	29.852 
20:30	61.2	61.2	61.2	51	42.9	0	0	---	0.00	29.851 
20:35	60.5	60.5	60.5	54	43.8	0	0	---	0.00	29.851 
20:40	60.2	60.2	60.2	54	43.5	0	0	---	0.00	29.851 
20:45	59.8	59.8	59.8	55	43.6	0	0	---	0.00	29.852 
20:50	59.3	59.3	59.3	57	44.1	0	0	---	0.00	29.852 
20:55	58.7	58.7	58.7	58	44.0	0	0	---	0.00	29.852 
21:00	58.3	58.3	58.3	58	43.6	0	0	---	0.00	29.856 
21:05	57.8	57.8	57.8	60	44.0	0	0	---	0.00	29.856 
21:10	57.3	57.3	57.3	61	44.0	0	0	---	0.00	29.856 
21:15	57.0	57.0	57.0	62	44.1	0	0	---	0.00	29.852 
21:20	56.7	56.7	56.7	61	43.4	0	0	---	0.00	29.852 
21:25	56.5	56.5	56.5	62	43.6	0	0	---	0.00	29.852 
21:30	56.2	56.2	56.2	62	43.4	0	0	---	0.00	29.856 
21:35	55.9	55.9	55.9	64	43.9	0	0	---	0.00	29.856 
21:40	55.6	55.6	55.6	65	44.0	0	0	---	0.00	29.856 
21:45	55.3	55.3	55.3	67	44.5	0	0	---	0.00	29.862 
21:50	55.0	55.0	55.0	69	45.0	0	0	---	0.00	29.862 
21:55	54.5	54.5	54.5	69	44.5	0	0	---	0.00	29.862 
22:00	54.2	54.2	54.2	69	44.3	0	0	---	0.00	29.863 
22:05	53.9	53.9	53.9	70	44.3	0	0	---	0.00	29.863 
22:10	53.6	53.6	53.6	71	44.4	0	0	---	0.00	29.863 
22:15	53.5	53.5	53.5	72	44.7	0	0	---	0.00	29.871 
22:20	53.3	53.3	53.3	72	44.5	0	0	---	0.00	29.871 
22:25	53.2	53.2	53.2	73	44.8	0	0	---	0.00	29.871 
22:30	53.1	53.1	53.1	72	44.3	0	0	---	0.00	29.876 
22:35	52.9	52.9	52.9	73	44.5	0	0	---	0.00	29.876 
22:40	52.8	52.8	52.8	73	44.4	0	0	---	0.00	29.876 
22:45	52.5	52.5	52.5	74	44.5	0	0	---	0.00	29.872 
22:50	52.2	52.2	52.2	74	44.2	0	0	---	0.00	29.872 
22:55	52.0	52.0	52.0	73	43.6	0	0	---	0.00	29.872 
23:00	51.9	51.9	51.9	75	44.2	0	0	---	0.00	29.876 
23:05	51.7	51.7	51.7	75	44.0	0	0	---	0.00	29.876 
23:10	51.4	51.4	51.4	76	44.1	0	0	---	0.00	29.876 
23:15	51.3	51.3	51.3	76	44.0	0	0	---	0.00	29.872 
23:20	51.1	51.1	51.1	77	44.1	0	0	---	0.00	29.872 
23:25	51.0	51.0	51.0	77	44.0	0	0	---	0.00	29.872 
23:30	50.8	50.8	50.8	77	43.9	0	0	---	0.00	29.862 
23:35	50.7	50.7	50.7	77	43.8	0	0	---	0.00	29.862 
23:40	50.4	50.4	50.4	78	43.8	0	0	---	0.00	29.862 
23:45	50.2	50.2	50.2	78	43.6	0	0	---	0.00	29.864 
23:50	49.9	49.9	49.9	79	43.6	0	0	---	0.00	29.864 
23:55	49.6	49.6	49.6	79	43.4	0	0	---	0.00	29.864 

CoCoRaHS
IN-AL-39
A2 Web Hosting
Creative Commons License
GoDaddy
Look for:

loaded 2017-12-11 11:52:49 • last modified 2010-11-18 10:43:29
Privacy PolicyDisclaimer
• wx.awcolley.com is powered by PmWiki v.2002016 •
• all content (unless otherwise noted) © 2017 A W Colley